W. T. Toutant — WDC6564 — position and weather

sailwx.info

Track history (hours):
 
Tides and Currents Weather Stations Pressure Air Temp Water Temp Dewpoint Dewpoint Depression Visibility Wind Speed Wind Dir Waves Ship Positions

W. T. Toutant

Owner: American Commercial Lines LLC, Jeffersonville, IN. More information available from US FCC via Universal Licensing System and Coast Guard Vessel Documentation Center.

Last reported at 2018-May-09 08:25 UTC. Time now 2018-Jun-22 20:23 UTC.
Position N 38°52' W 090°09'.
Warning: this ship's position is 44 days out of date.

Length 48 m; draft 3.6 m.

Type: Towing. MMSI: 367057940.

Date/timePositionNaut miles runAvg speedWind from/ knotsBaromVisibWave heightAir tempDewpointWater temp
2018-May-09 08:25N 38°52' W 090°09'0 0.0
2018-May-09 08:00N 38°52' W 090°09'0 0.0
2018-May-09 07:30N 38°52' W 090°09'0 0.5
2018-May-09 07:00N 38°52' W 090°09'0 0.6
2018-May-09 06:30N 38°52' W 090°09'2 4.3
2018-May-09 06:00N 38°53' W 090°12'4 7.0
2018-May-09 05:30N 38°55' W 090°15'3 6.9
2018-May-09 05:00N 38°56' W 090°20'4 7.4
2018-May-09 04:30N 38°58' W 090°24'3 7.0
2018-May-09 04:00N 38°58' W 090°28'3 5.1
2018-May-09 03:30N 38°57' W 090°31'3 5.4
2018-May-09 03:00N 38°59' W 090°34'2 4.6
2018-May-09 02:28N 39°01' W 090°34'3 4.1
2018-May-09 01:50N 39°04' W 090°35'1 4.1
2018-May-09 01:30N 39°05' W 090°36'2 3.7
2018-May-09 00:58N 39°07' W 090°36'4 0.1
2018-May-07 07:13N 39°12' W 090°36'1 2.9
2018-May-07 06:56N 39°11' W 090°36'1 1.6
2018-May-07 06:29N 39°10' W 090°37'1 2.0
2018-May-07 05:57N 39°09' W 090°37'2 2.5
2018-May-07 05:18N 39°08' W 090°37'1 3.2
2018-May-07 05:00N 39°07' W 090°36'2 3.4
2018-May-07 04:30N 39°05' W 090°36'2 3.1
2018-May-07 04:00N 39°04' W 090°35'1 2.5
2018-May-07 03:30N 39°02' W 090°35'2 3.1
2018-May-07 03:00N 39°01' W 090°35'2 3.2
2018-May-07 02:30N 38°59' W 090°34'2 3.4
2018-May-07 02:00N 38°58' W 090°33'2 3.2
2018-May-07 01:30N 38°57' W 090°31'2 3.5
2018-May-07 01:00N 38°58' W 090°29'2 3.5
2018-May-07 00:31N 38°58' W 090°27'1 2.9
2018-May-07 00:00N 38°58' W 090°25'1 2.9
2018-May-06 23:30N 38°57' W 090°23'2 3.2
2018-May-06 23:00N 38°57' W 090°21'3 3.1
2018-May-06 22:04N 38°55' W 090°18'1 3.7
2018-May-06 21:54N 38°55' W 090°17'2 4.5
2018-May-06 21:30N 38°55' W 090°15'3 3.9
2018-May-06 20:45N 38°54' W 090°12'1 4.0
2018-May-06 20:30N 38°53' W 090°11'3 2.2
2018-May-06 19:21N 38°52' W 090°08'10 2.0
2018-May-06 14:17N 38°42' W 090°11'1 2.3
2018-May-06 13:58N 38°41' W 090°11'4 1.0
2018-May-06 09:48N 38°37' W 090°11'0 0.0
2018-May-06 09:30N 38°37' W 090°11'0 0.0
2018-May-06 08:46N 38°37' W 090°11'0 0.0
2018-May-06 08:22N 38°37' W 090°11'  
Track history (hours):
 
Tides and Currents Weather Stations Pressure Air Temp Water Temp Dewpoint Dewpoint Depression Visibility Wind Speed Wind Dir Waves Ship Positions

W. T. Toutant

Owner: American Commercial Lines LLC, Jeffersonville, IN. More information available from US FCC via Universal Licensing System and Coast Guard Vessel Documentation Center.

Last reported at 2018-May-09 08:25 UTC. Time now 2018-Jun-22 20:23 UTC.
Position N 38°52' W 090°09'.
Warning: this ship's position is 44 days out of date.

Length 48 m; draft 3.6 m.

Type: Towing. MMSI: 367057940.

Date/timePositionNaut miles runAvg speedWind from/ knotsBaromVisibWave heightAir tempDewpointWater temp
2018-May-09 08:25N 38°52' W 090°09'0 0.0
2018-May-09 08:00N 38°52' W 090°09'0 0.0
2018-May-09 07:30N 38°52' W 090°09'0 0.5
2018-May-09 07:00N 38°52' W 090°09'0 0.6
2018-May-09 06:30N 38°52' W 090°09'2 4.3
2018-May-09 06:00N 38°53' W 090°12'4 7.0
2018-May-09 05:30N 38°55' W 090°15'3 6.9
2018-May-09 05:00N 38°56' W 090°20'4 7.4
2018-May-09 04:30N 38°58' W 090°24'3 7.0
2018-May-09 04:00N 38°58' W 090°28'3 5.1
2018-May-09 03:30N 38°57' W 090°31'3 5.4
2018-May-09 03:00N 38°59' W 090°34'2 4.6
2018-May-09 02:28N 39°01' W 090°34'3 4.1
2018-May-09 01:50N 39°04' W 090°35'1 4.1
2018-May-09 01:30N 39°05' W 090°36'2 3.7
2018-May-09 00:58N 39°07' W 090°36'4 0.1
2018-May-07 07:13N 39°12' W 090°36'1 2.9
2018-May-07 06:56N 39°11' W 090°36'1 1.6
2018-May-07 06:29N 39°10' W 090°37'1 2.0
2018-May-07 05:57N 39°09' W 090°37'2 2.5
2018-May-07 05:18N 39°08' W 090°37'1 3.2
2018-May-07 05:00N 39°07' W 090°36'2 3.4
2018-May-07 04:30N 39°05' W 090°36'2 3.1
2018-May-07 04:00N 39°04' W 090°35'1 2.5
2018-May-07 03:30N 39°02' W 090°35'2 3.1
2018-May-07 03:00N 39°01' W 090°35'2 3.2
2018-May-07 02:30N 38°59' W 090°34'2 3.4
2018-May-07 02:00N 38°58' W 090°33'2 3.2
2018-May-07 01:30N 38°57' W 090°31'2 3.5
2018-May-07 01:00N 38°58' W 090°29'2 3.5
2018-May-07 00:31N 38°58' W 090°27'1 2.9
2018-May-07 00:00N 38°58' W 090°25'1 2.9
2018-May-06 23:30N 38°57' W 090°23'2 3.2
2018-May-06 23:00N 38°57' W 090°21'3 3.1
2018-May-06 22:04N 38°55' W 090°18'1 3.7
2018-May-06 21:54N 38°55' W 090°17'2 4.5
2018-May-06 21:30N 38°55' W 090°15'3 3.9
2018-May-06 20:45N 38°54' W 090°12'1 4.0
2018-May-06 20:30N 38°53' W 090°11'3 2.2
2018-May-06 19:21N 38°52' W 090°08'10 2.0
2018-May-06 14:17N 38°42' W 090°11'1 2.3
2018-May-06 13:58N 38°41' W 090°11'4 1.0
2018-May-06 09:48N 38°37' W 090°11'0 0.0
2018-May-06 09:30N 38°37' W 090°11'0 0.0
2018-May-06 08:46N 38°37' W 090°11'0 0.0
2018-May-06 08:22N 38°37' W 090°11'  

Dump ship's entire track history